Time;durP1;ratioP1;P1;durP2;ratioP2;P2;SDS_P1;SDS_P2;PMS_P1;PMS_P2;Temp;Humidity;BMP_temperature;BMP_pressure;BME280_temperature;BME280_humidity;BME280_pressure;Samples;Min_cycle;Max_cycle;Signal;HPM_P1;HPM_P2
2021/08/12 00:02:12;;;;;;;10.30;7.47;;;;;;;14.87;100.00;99334.55;1745474;81;20865;-69
2021/08/12 00:04:38;;;;;;;12.55;7.92;;;;;;;14.84;100.00;99332.95;1745537;81;20849;-68
2021/08/12 00:07:05;;;;;;;12.07;7.80;;;;;;;14.79;100.00;99333.25;1745523;81;20940;-68
2021/08/12 00:09:32;;;;;;;9.90;7.80;;;;;;;14.74;100.00;99334.66;1745578;81;20880;-68
2021/08/12 00:11:59;;;;;;;11.05;7.87;;;;;;;14.74;100.00;99333.86;1690272;82;21116;-68
2021/08/12 00:14:26;;;;;;;11.40;7.90;;;;;;;14.65;100.00;99330.99;1745468;81;20900;-68
2021/08/12 00:16:52;;;;;;;9.18;7.62;;;;;;;14.59;100.00;99333.47;1745722;81;20880;-68
2021/08/12 00:19:19;;;;;;;8.48;7.33;;;;;;;14.50;100.00;99331.09;1744988;81;20979;-68
2021/08/12 00:21:46;;;;;;;11.00;8.43;;;;;;;14.45;100.00;99329.80;1745183;81;21090;-68
2021/08/12 00:24:12;;;;;;;9.23;7.42;;;;;;;14.42;100.00;99332.52;1745507;81;21021;-68
2021/08/12 00:26:41;;;;;;;16.77;8.48;;;;;;;14.43;100.00;99338.72;1745640;81;20952;-68
2021/08/12 00:29:08;;;;;;;12.85;7.72;;;;;;;14.46;100.00;99339.52;1723018;82;20862;-68
2021/08/12 00:31:35;;;;;;;16.15;8.85;;;;;;;14.49;100.00;99339.75;1745600;81;20970;-68
2021/08/12 00:34:02;;;;;;;9.63;8.13;;;;;;;14.52;100.00;99339.72;1745285;82;21279;-68
2021/08/12 00:36:29;;;;;;;15.03;8.40;;;;;;;14.54;100.00;99341.62;1745384;81;21343;-68
2021/08/12 00:38:57;;;;;;;;;;;;;;;14.54;100.00;99348.38;1725525;81;20865;-69
2021/08/12 00:41:25;;;;;;;14.93;8.38;;;;;;;14.56;100.00;99346.20;1745708;81;20500;-69
2021/08/12 00:43:51;;;;;;;13.80;8.55;;;;;;;14.58;100.00;99348.08;1745685;81;20864;-69
2021/08/12 00:46:20;;;;;;;;;;;;;;;14.58;100.00;99342.67;1748254;81;20872;-69
2021/08/12 00:48:46;;;;;;;12.23;8.58;;;;;;;14.53;100.00;99346.75;1745494;81;21106;-68
2021/08/12 00:51:14;;;;;;;16.40;8.93;;;;;;;14.45;100.00;99350.84;1747349;81;21244;-68
2021/08/12 00:53:42;;;;;;;12.18;9.93;;;;;;;14.43;100.00;99352.22;1745384;81;20944;-68
2021/08/12 00:56:08;;;;;;;18.17;9.53;;;;;;;14.44;100.00;99351.15;1722731;82;20944;-68
2021/08/12 00:58:35;;;;;;;12.13;8.98;;;;;;;14.40;100.00;99354.14;1745426;81;21480;-68
2021/08/12 01:01:02;;;;;;;18.35;8.93;;;;;;;14.35;100.00;99349.04;1747325;81;21352;-68
2021/08/12 01:03:29;;;;;;;12.95;9.50;;;;;;;14.33;100.00;99345.84;1745538;81;21280;-68
2021/08/12 01:05:57;;;;;;;10.78;8.88;;;;;;;14.30;100.00;99348.29;1745453;81;21371;-68
2021/08/12 01:08:49;;;;;;;15.65;9.95;;;;;;;14.29;100.00;99346.69;1744431;82;21018;-68
2021/08/12 01:11:43;;;;;;;11.83;9.18;;;;;;;14.22;100.00;99349.70;1745622;81;20955;-68
2021/08/12 01:14:43;;;;;;;14.15;9.30;;;;;;;14.14;100.00;99346.27;1745316;81;21103;-68
2021/08/12 01:17:17;;;;;;;11.83;9.68;;;;;;;14.09;100.00;99350.36;1745371;81;20877;-68
2021/08/12 01:20:11;;;;;;;12.47;10.18;;;;;;;14.02;100.00;99352.58;1745493;81;20857;-68
2021/08/12 01:22:42;;;;;;;11.68;9.30;;;;;;;13.99;100.00;99351.77;1745749;81;20900;-68
2021/08/12 01:25:13;;;;;;;20.15;11.00;;;;;;;13.98;100.00;99352.86;1745017;81;20801;-67
2021/08/12 01:27:40;;;;;;;15.13;10.55;;;;;;;13.96;100.00;99363.92;1744232;81;21135;-68
2021/08/12 01:30:11;;;;;;;11.55;8.98;;;;;;;13.94;100.00;99357.48;1722564;82;20865;-67
2021/08/12 01:33:05;;;;;;;14.93;10.20;;;;;;;13.98;100.00;99358.26;1745524;81;20996;-67
2021/08/12 01:35:33;;;;;;;12.93;9.45;;;;;;;14.01;100.00;99365.23;1722707;82;20825;-67
2021/08/12 01:38:20;;;;;;;12.05;10.13;;;;;;;14.02;100.00;99363.37;1698847;82;21300;-67
2021/08/12 01:40:47;;;;;;;11.10;9.53;;;;;;;13.96;100.00;99365.27;1745724;80;21118;-67
2021/08/12 01:43:19;;;;;;;9.78;8.78;;;;;;;13.92;100.00;99369.09;1745140;81;21122;-67
2021/08/12 01:45:55;;;;;;;13.83;10.30;;;;;;;13.92;100.00;99362.89;1745633;81;21391;-67
2021/08/12 01:48:23;;;;;;;12.58;9.58;;;;;;;13.90;100.00;99365.06;1723211;82;20857;-67
2021/08/12 01:50:50;;;;;;;12.37;10.28;;;;;;;13.90;100.00;99360.47;1745275;81;20892;-67
2021/08/12 01:53:21;;;;;;;11.15;9.93;;;;;;;13.89;100.00;99364.27;1745740;81;21778;-67
2021/08/12 01:55:49;;;;;;;13.65;9.75;;;;;;;13.83;100.00;99353.78;1745360;81;21379;-67
2021/08/12 01:58:17;;;;;;;12.00;10.65;;;;;;;13.77;100.00;99361.11;1745627;81;20892;-66
2021/08/12 02:00:46;;;;;;;11.83;10.18;;;;;;;13.70;100.00;99357.36;1722099;82;20892;-66
2021/08/12 02:03:15;;;;;;;15.10;10.75;;;;;;;13.64;100.00;99364.41;1745586;81;20875;-66
2021/08/12 02:05:47;;;;;;;13.88;9.83;;;;;;;13.62;100.00;99368.75;1745397;81;21311;-67
2021/08/12 02:08:16;;;;;;;14.25;10.30;;;;;;;13.59;100.00;99366.58;1722727;82;21304;-67
2021/08/12 02:10:46;;;;;;;12.73;9.83;;;;;;;13.56;100.00;99370.39;1745113;81;20864;-68
2021/08/12 02:13:14;;;;;;;16.15;10.13;;;;;;;13.57;100.00;99370.13;1745602;81;20892;-67
2021/08/12 02:15:42;;;;;;;;;;;;;;;13.53;100.00;99373.09;1747913;81;20888;-66
2021/08/12 02:18:09;;;;;;;12.98;9.88;;;;;;;13.51;100.00;99372.56;1745696;81;21755;-66
2021/08/12 02:20:36;;;;;;;13.83;11.08;;;;;;;13.45;100.00;99369.09;1745203;81;20908;-66
2021/08/12 02:23:18;;;;;;;14.18;10.18;;;;;;;13.41;100.00;99374.77;1745746;81;20877;-66
2021/08/12 02:25:54;;;;;;;12.60;10.43;;;;;;;13.36;100.00;99377.48;1745263;81;21043;-66
2021/08/12 02:28:20;;;;;;;11.48;9.88;;;;;;;13.32;100.00;99373.72;1745503;81;20848;-67
2021/08/12 02:30:47;;;;;;;10.88;9.55;;;;;;;13.32;100.00;99374.27;1721750;82;21021;-67
2021/08/12 02:33:16;;;;;;;17.48;11.63;;;;;;;13.27;100.00;99375.09;1745594;81;20869;-67
2021/08/12 02:35:42;;;;;;;24.05;10.18;;;;;;;13.25;100.00;99371.31;1745283;81;21433;-67
2021/08/12 02:38:12;;;;;;;14.18;10.23;;;;;;;13.20;100.00;99379.94;1745673;81;20869;-66
2021/08/12 02:40:41;;;;;;;15.98;10.80;;;;;;;13.16;100.00;99377.55;1745375;80;20841;-66
2021/08/12 02:43:08;;;;;;;12.90;10.45;;;;;;;13.17;100.00;99383.98;1745587;82;21101;-66
2021/08/12 02:45:35;;;;;;;13.38;9.43;;;;;;;13.17;100.00;99380.49;1745459;81;20959;-66
2021/08/12 02:48:02;;;;;;;15.23;11.10;;;;;;;13.17;100.00;99379.15;1745723;81;20888;-66
2021/08/12 02:50:30;;;;;;;16.40;11.00;;;;;;;13.16;100.00;99386.98;1745304;81;20888;-66
2021/08/12 02:52:57;;;;;;;12.33;10.58;;;;;;;13.15;100.00;99378.06;1690705;81;20908;-66
2021/08/12 02:55:25;;;;;;;12.90;11.08;;;;;;;13.17;100.00;99384.53;1745432;81;21125;-66
2021/08/12 02:57:52;;;;;;;14.63;11.70;;;;;;;13.19;100.00;99389.12;1745798;82;20909;-67
2021/08/12 03:00:21;;;;;;;;;;;;;;;13.22;100.00;99392.60;1747630;81;20889;-66
2021/08/12 03:02:48;;;;;;;12.23;10.45;;;;;;;13.22;100.00;99393.95;1745430;81;20100;-68
2021/08/12 03:05:15;;;;;;;16.17;10.58;;;;;;;13.21;100.00;99394.50;1721486;82;20986;-67
2021/08/12 03:07:45;;;;;;;13.13;9.95;;;;;;;13.17;100.00;99393.97;1744975;81;21117;-67
2021/08/12 03:10:13;;;;;;;12.68;10.43;;;;;;;13.16;100.00;99401.25;1744487;81;20837;-67
2021/08/12 03:12:40;;;;;;;24.02;11.15;;;;;;;13.17;100.00;99400.70;1745299;82;20852;-67
2021/08/12 03:15:10;;;;;;;16.75;10.63;;;;;;;13.17;100.00;99403.41;1745145;81;21410;-67
2021/08/12 03:17:37;;;;;;;11.95;10.45;;;;;;;13.15;100.00;99406.91;1745116;82;20892;-66
2021/08/12 03:20:06;;;;;;;14.20;10.60;;;;;;;13.14;100.00;99406.11;1722661;82;21697;-66
2021/08/12 03:22:33;;;;;;;13.68;10.50;;;;;;;13.17;100.00;99413.63;1745657;81;20837;-67
2021/08/12 03:25:00;;;;;;;15.08;9.68;;;;;;;13.20;100.00;99410.93;1745541;81;20884;-67
2021/08/12 03:27:27;;;;;;;18.52;12.45;;;;;;;13.23;100.00;99419.84;1746018;81;20924;-67
2021/08/12 03:29:54;;;;;;;15.83;10.45;;;;;;;13.25;100.00;99419.00;1745419;81;21149;-67
2021/08/12 03:32:21;;;;;;;11.05;9.43;;;;;;;13.27;100.00;99418.22;1722442;82;21059;-67
2021/08/12 03:34:49;;;;;;;13.72;10.25;;;;;;;13.33;100.00;99421.69;1745584;81;21406;-66
2021/08/12 03:37:15;;;;;;;12.53;9.68;;;;;;;13.39;100.00;99420.61;1745676;82;21027;-67
2021/08/12 03:39:42;;;;;;;13.20;10.25;;;;;;;13.43;100.00;99422.48;1745639;80;21062;-67
2021/08/12 03:42:10;;;;;;;11.73;9.45;;;;;;;13.53;100.00;99423.53;1744782;81;20955;-68
2021/08/12 03:44:36;;;;;;;14.55;9.10;;;;;;;13.60;100.00;99422.69;1745371;81;21139;-67
2021/08/12 03:47:05;;;;;;;11.70;9.45;;;;;;;13.70;100.00;99432.08;1745377;81;20801;-66
2021/08/12 03:49:33;;;;;;;15.43;9.05;;;;;;;13.78;100.00;99439.58;1745530;81;20880;-67
2021/08/12 03:52:00;;;;;;;;;;;;;;;13.85;100.00;99443.33;1748286;81;20893;-67
2021/08/12 03:54:27;;;;;;;16.15;11.28;;;;;;;13.92;100.00;99439.79;1745499;81;20113;-67
2021/08/12 03:56:54;;;;;;;13.93;8.88;;;;;;;14.02;100.00;99442.97;1745548;81;21093;-68
2021/08/12 03:59:24;;;;;;;16.00;10.60;;;;;;;14.10;100.00;99439.67;1746130;82;21308;-67
2021/08/12 04:01:51;;;;;;;11.08;8.63;;;;;;;14.20;100.00;99446.35;1745585;81;20852;-68
2021/08/12 04:04:17;;;;;;;10.95;8.73;;;;;;;14.28;100.00;99448.48;1745847;81;20868;-68
2021/08/12 04:06:45;;;;;;;15.35;8.80;;;;;;;14.36;100.00;99451.92;1744875;81;20999;-68
2021/08/12 04:09:12;;;;;;;10.85;8.28;;;;;;;14.45;100.00;99454.81;1745628;81;21102;-67
2021/08/12 04:11:39;;;;;;;10.40;8.55;;;;;;;14.52;100.00;99458.55;1745455;81;20931;-68
2021/08/12 04:14:06;;;;;;;12.60;8.50;;;;;;;14.66;100.00;99464.16;1746024;81;20892;-68
2021/08/12 04:16:34;;;;;;;14.65;8.85;;;;;;;14.80;100.00;99469.17;1745768;81;20895;-68
2021/08/12 04:19:04;;;;;;;10.28;8.05;;;;;;;14.91;100.00;99473.38;1745991;81;20923;-67
2021/08/12 04:21:32;;;;;;;20.35;9.15;;;;;;;14.98;100.00;99483.87;1745631;82;21098;-66
2021/08/12 04:23:58;;;;;;;13.90;8.35;;;;;;;15.07;100.00;99483.52;1745412;81;21518;-66
2021/08/12 04:26:27;;;;;;;12.40;9.00;;;;;;;15.22;100.00;99482.55;1745433;81;20841;-66
2021/08/12 04:28:54;;;;;;;;;;;;;;;15.36;100.00;99488.08;1748464;81;21403;-67
2021/08/12 04:31:22;;;;;;;13.93;8.65;;;;;;;15.40;100.00;99492.63;1745561;81;20402;-67
2021/08/12 04:33:49;;;;;;;20.02;8.50;;;;;;;15.48;100.00;99489.83;1745523;81;21021;-67
2021/08/12 04:36:16;;;;;;;13.33;8.73;;;;;;;15.55;100.00;99488.14;1745686;81;20876;-67
2021/08/12 04:38:43;;;;;;;11.73;8.68;;;;;;;15.62;100.00;99494.81;1745362;81;20939;-68
2021/08/12 04:41:10;;;;;;;20.57;8.50;;;;;;;15.65;100.00;99490.20;1745635;80;20897;-68
2021/08/12 04:43:37;;;;;;;12.40;7.97;;;;;;;15.79;100.00;99499.80;1745756;81;20893;-67
2021/08/12 04:46:03;;;;;;;12.45;8.68;;;;;;;15.91;100.00;99486.40;1745509;81;21124;-68
2021/08/12 04:48:30;;;;;;;18.12;8.65;;;;;;;15.99;100.00;99497.92;1745778;81;20833;-68
2021/08/12 04:50:57;;;;;;;16.48;8.65;;;;;;;16.15;100.00;99485.00;1747153;81;20947;-68
2021/08/12 04:53:24;;;;;;;13.00;7.97;;;;;;;16.29;100.00;99492.63;1744937;81;20844;-67
2021/08/12 04:55:51;;;;;;;11.75;7.15;;;;;;;16.45;100.00;99496.73;1745322;81;20897;-68
2021/08/12 04:58:18;;;;;;;12.65;7.47;;;;;;;16.55;100.00;99499.04;1745342;81;21053;-66
2021/08/12 05:00:44;;;;;;;9.18;7.08;;;;;;;16.67;100.00;99498.03;1745413;81;20841;-67
2021/08/12 05:03:12;;;;;;;10.30;7.05;;;;;;;16.85;100.00;99507.25;1745556;81;20821;-68
2021/08/12 05:05:39;;;;;;;12.15;6.97;;;;;;;16.82;100.00;99504.59;1745410;81;20912;-67
2021/08/12 05:08:07;;;;;;;9.30;6.70;;;;;;;16.95;100.00;99507.08;1745411;81;20951;-68
2021/08/12 05:10:34;;;;;;;9.53;6.58;;;;;;;17.07;100.00;99505.25;1744997;81;21110;-68
2021/08/12 05:13:03;;;;;;;12.35;6.65;;;;;;;17.12;100.00;99505.99;1745318;80;21275;-68
2021/08/12 05:15:31;;;;;;;12.13;6.35;;;;;;;17.13;100.00;99503.52;1745513;80;20856;-68
2021/08/12 05:17:58;;;;;;;9.93;6.35;;;;;;;17.21;100.00;99510.72;1745468;81;20967;-68
2021/08/12 05:20:26;;;;;;;7.58;6.03;;;;;;;17.46;100.00;99510.80;1745242;82;20892;-68
2021/08/12 05:22:53;;;;;;;6.25;5.20;;;;;;;17.47;100.00;99502.37;1745499;82;21105;-68
2021/08/12 05:25:20;;;;;;;8.53;6.00;;;;;;;17.56;100.00;99510.06;1745655;81;21339;-68
2021/08/12 05:27:47;;;;;;;9.88;6.37;;;;;;;17.68;100.00;99514.17;1745034;81;20956;-68
2021/08/12 05:30:14;;;;;;;9.18;6.10;;;;;;;17.95;100.00;99510.66;1745243;81;20853;-67
2021/08/12 05:32:43;;;;;;;7.08;5.40;;;;;;;18.06;100.00;99513.43;1745193;80;20955;-67
2021/08/12 05:35:11;;;;;;;9.18;5.33;;;;;;;18.27;100.00;99511.62;1745495;81;21347;-68
2021/08/12 05:37:37;;;;;;;6.75;5.15;;;;;;;18.33;100.00;99506.33;1745209;81;20951;-68
2021/08/12 05:40:06;;;;;;;8.40;4.95;;;;;;;18.45;100.00;99515.28;1745151;80;21434;-67
2021/08/12 05:42:34;;;;;;;5.70;4.80;;;;;;;18.42;100.00;99509.38;1745226;81;20998;-66
2021/08/12 05:45:01;;;;;;;6.65;4.97;;;;;;;18.50;100.00;99504.32;1745384;81;20996;-68
2021/08/12 05:47:30;;;;;;;7.78;5.17;;;;;;;18.64;100.00;99507.77;1745164;80;20817;-68
2021/08/12 05:49:57;;;;;;;5.45;4.08;;;;;;;18.93;100.00;99519.59;1745374;82;20897;-68
2021/08/12 05:52:25;;;;;;;11.03;5.00;;;;;;;18.80;100.00;99511.77;1747169;81;20924;-68
2021/08/12 05:54:52;;;;;;;7.80;5.12;;;;;;;19.32;100.00;99514.55;1745673;81;20859;-67
2021/08/12 05:57:19;;;;;;;7.10;4.30;;;;;;;19.40;100.00;99511.88;1745729;81;20908;-67
2021/08/12 05:59:45;;;;;;;8.53;4.87;;;;;;;19.53;100.00;99521.05;1745264;81;21117;-67
2021/08/12 06:02:12;;;;;;;10.20;5.03;;;;;;;19.28;100.00;99523.91;1745191;81;20841;-67
2021/08/12 06:04:39;;;;;;;9.60;5.03;;;;;;;19.12;100.00;99522.13;1745517;81;20955;-66
2021/08/12 06:07:08;;;;;;;7.42;4.60;;;;;;;19.18;100.00;99525.51;1745299;81;20936;-65
2021/08/12 06:09:35;;;;;;;6.80;4.72;;;;;;;19.49;100.00;99525.52;1745546;81;21363;-66
2021/08/12 06:12:04;;;;;;;6.72;4.10;;;;;;;19.78;100.00;99533.19;1745416;81;21132;-66
2021/08/12 06:14:33;;;;;;;9.65;4.28;;;;;;;20.06;100.00;99531.56;1745122;81;20805;-66
2021/08/12 06:17:02;;;;;;;6.47;4.28;;;;;;;20.16;100.00;99535.35;1745379;81;21383;-66
2021/08/12 06:19:31;;;;;;;5.62;4.03;;;;;;;20.42;100.00;99536.76;1745305;80;21350;-67
2021/08/12 06:21:57;;;;;;;5.20;3.83;;;;;;;20.37;100.00;99530.66;1747235;81;20967;-67
2021/08/12 06:24:24;;;;;;;6.20;4.03;;;;;;;20.53;100.00;99540.78;1725677;80;21160;-67
2021/08/12 06:26:51;;;;;;;7.95;4.40;;;;;;;20.44;100.00;99539.17;1768809;80;20926;-66
2021/08/12 06:29:18;;;;;;;5.95;4.08;;;;;;;20.78;100.00;99536.24;1753991;80;20888;-66
2021/08/12 06:31:45;;;;;;;6.28;3.87;;;;;;;20.84;100.00;99537.09;1738336;82;21049;-65
2021/08/12 06:34:12;;;;;;;5.07;3.90;;;;;;;20.97;100.00;99531.25;1739033;82;21343;-66
2021/08/12 06:36:39;;;;;;;8.78;3.83;;;;;;;21.27;98.81;99535.44;1738718;82;21124;-67
2021/08/12 06:39:06;;;;;;;7.83;3.60;;;;;;;21.23;93.96;99529.02;1738151;81;21024;-67
2021/08/12 06:41:32;;;;;;;6.87;3.65;;;;;;;21.22;93.93;99528.78;1733230;80;21113;-64
2021/08/12 06:44:01;;;;;;;7.95;3.75;;;;;;;21.03;95.18;99527.21;1745484;80;20895;-65
2021/08/12 06:46:28;;;;;;;7.75;4.03;;;;;;;21.15;91.20;99534.73;1773745;80;21006;-67
2021/08/12 06:48:55;;;;;;;5.67;3.97;;;;;;;21.29;87.74;99531.79;1773542;81;21115;-67
2021/08/12 06:51:22;;;;;;;7.42;3.80;;;;;;;21.27;85.39;99526.67;1744774;79;20853;-66
2021/08/12 06:53:51;;;;;;;9.38;4.12;;;;;;;21.50;83.70;99536.02;1742127;80;21031;-68
2021/08/12 06:56:18;;;;;;;5.10;3.70;;;;;;;21.44;79.72;99519.03;1714599;82;21056;-66
2021/08/12 06:58:46;;;;;;;7.22;3.80;;;;;;;21.44;79.72;99519.03;1740567;80;21788;-65
2021/08/12 07:01:15;;;;;;;5.72;3.60;;;;;;;21.27;78.73;99535.44;1767701;80;20887;-65
2021/08/12 07:03:42;;;;;;;9.95;4.22;;;;;;;21.40;75.55;99528.98;1750003;80;20913;-61
2021/08/12 07:06:09;;;;;;;6.53;3.98;;;;;;;21.19;73.36;99533.77;1732049;80;20955;-62
2021/08/12 07:08:36;;;;;;;6.42;4.17;;;;;;;21.42;74.39;99530.03;1766255;79;21001;-61
2021/08/12 07:11:05;;;;;;;7.28;4.00;;;;;;;21.77;74.22;99540.24;1757287;80;20971;-63
2021/08/12 07:13:32;;;;;;;5.42;4.53;;;;;;;21.80;67.95;99524.02;1755665;81;21155;-62
2021/08/12 07:16:00;;;;;;;6.70;4.35;;;;;;;21.63;65.98;99539.09;1755228;80;20913;-63
2021/08/12 07:18:29;;;;;;;6.97;4.10;;;;;;;21.67;66.83;99540.61;1778009;79;21420;-65
2021/08/12 07:20:56;;;;;;;8.25;4.03;;;;;;;21.81;66.24;99543.93;1771163;80;21001;-64
2021/08/12 07:23:26;;;;;;;8.15;4.45;;;;;;;21.83;65.22;99549.30;1739930;80;20898;-61
2021/08/12 07:25:54;;;;;;;11.35;4.30;;;;;;;21.67;66.84;99550.17;1768374;80;21294;-62
2021/08/12 07:28:23;;;;;;;8.08;4.00;;;;;;;21.87;64.75;99560.36;1769954;79;20878;-64
2021/08/12 07:30:52;;;;;;;7.37;4.45;;;;;;;22.10;65.68;99557.34;1768026;81;20867;-61
2021/08/12 07:33:20;;;;;;;10.58;5.00;;;;;;;22.11;65.36;99545.30;1767831;81;20930;-63
2021/08/12 07:35:47;;;;;;;11.48;4.50;;;;;;;22.23;63.41;99563.97;1761253;79;20870;-62
2021/08/12 07:38:14;;;;;;;8.08;4.55;;;;;;;22.35;64.56;99570.66;1755721;79;21741;-63
2021/08/12 07:40:41;;;;;;;7.60;4.03;;;;;;;22.44;65.18;99575.48;1725462;79;21467;-63
2021/08/12 07:43:08;;;;;;;7.17;4.87;;;;;;;22.37;65.25;99570.56;1734259;82;21425;-63
2021/08/12 07:45:35;;;;;;;7.72;4.47;;;;;;;22.68;63.12;99574.28;1738466;80;21041;-60
2021/08/12 07:48:02;;;;;;;6.15;3.98;;;;;;;22.35;64.76;99578.87;1769426;80;21050;-62
2021/08/12 07:50:29;;;;;;;5.70;3.80;;;;;;;22.64;62.48;99578.81;1761132;80;21870;-62
2021/08/12 07:52:56;;;;;;;5.72;4.30;;;;;;;22.52;62.46;99575.22;1755465;80;21004;-62
2021/08/12 07:55:25;;;;;;;4.95;4.28;;;;;;;22.73;61.50;99584.77;1755641;81;20822;-62
2021/08/12 07:57:51;;;;;;;12.37;4.30;;;;;;;22.90;60.26;99585.42;1732969;81;20979;-62
2021/08/12 08:00:28;;;;;;;5.85;3.85;;;;;;;22.82;59.80;99593.14;1760227;81;20967;-63
2021/08/12 08:03:12;;;;;;;5.40;3.90;;;;;;;22.69;57.27;99587.39;1756483;80;20935;-63
2021/08/12 08:05:38;;;;;;;8.65;4.40;;;;;;;22.66;56.54;99588.03;1622363;87;20959;-60
2021/08/12 08:08:06;;;;;;;9.18;5.00;;;;;;;22.37;58.58;99586.17;1615717;88;20941;-62
2021/08/12 08:10:38;;;;;;;7.87;4.72;;;;;;;22.57;58.80;99585.95;1616167;88;20968;-62
2021/08/12 08:13:04;;;;;;;14.55;5.72;;;;;;;22.55;59.87;99589.59;1616581;88;20957;-63
2021/08/12 08:15:33;;;;;;;10.70;4.42;;;;;;;22.97;57.66;99585.46;1600296;88;20963;-62
2021/08/12 08:18:01;;;;;;;6.90;5.00;;;;;;;23.17;57.21;99582.48;1574208;88;21003;-62
2021/08/12 08:20:30;;;;;;;8.63;4.67;;;;;;;23.16;56.82;99580.32;1572812;90;20979;-61
2021/08/12 08:23:08;;;;;;;;;;;;;;;23.09;58.14;99586.91;1575404;90;20983;-61
2021/08/12 08:25:35;;;;;;;7.40;4.70;;;;;;;23.28;54.98;99587.20;1572866;90;20509;-62
2021/08/12 08:28:04;;;;;;;6.92;4.70;;;;;;;23.05;55.67;99575.02;1578905;88;20897;-64
2021/08/12 08:30:33;;;;;;;8.13;4.73;;;;;;;23.27;56.32;99578.77;1588959;88;21076;-63
2021/08/12 08:33:00;;;;;;;50.92;25.80;;;;;;;23.37;55.95;99590.41;1574169;88;21782;-63
2021/08/12 08:35:28;;;;;;;11.87;4.87;;;;;;;23.47;55.11;99587.23;1585072;83;20981;-63
2021/08/12 08:37:58;;;;;;;8.33;4.47;;;;;;;23.78;56.18;99588.70;1729533;79;21073;-64
2021/08/12 08:40:25;;;;;;;7.53;4.60;;;;;;;23.60;53.03;99592.19;1757841;79;21105;-62
2021/08/12 08:42:53;;;;;;;6.20;4.03;;;;;;;23.37;55.64;99594.52;1767949;81;20926;-63
2021/08/12 08:45:27;;;;;;;7.58;4.25;;;;;;;23.65;56.00;99603.72;1759888;80;20958;-64
2021/08/12 08:47:55;;;;;;;8.30;4.25;;;;;;;23.82;52.85;99595.89;1738758;82;21445;-64
2021/08/12 08:50:25;;;;;;;7.33;3.95;;;;;;;24.20;54.12;99614.52;1738956;82;21320;-63
2021/08/12 08:52:53;;;;;;;6.45;4.47;;;;;;;24.30;53.54;99616.24;1746507;81;21109;-64
2021/08/12 08:55:22;;;;;;;7.55;4.30;;;;;;;24.16;51.42;99606.19;1768871;81;20867;-64
2021/08/12 08:57:51;;;;;;;7.53;4.08;;;;;;;23.83;52.81;99609.02;1747393;80;20907;-65
2021/08/12 09:00:18;;;;;;;6.67;4.20;;;;;;;24.00;52.97;99607.43;1768129;81;20910;-64
2021/08/12 09:02:47;;;;;;;5.28;3.83;;;;;;;24.05;53.26;99611.31;1769053;81;21492;-63
2021/08/12 09:05:15;;;;;;;6.08;3.85;;;;;;;24.27;53.53;99605.14;1773081;81;21707;-66
2021/08/12 09:07:43;;;;;;;5.05;4.22;;;;;;;24.26;52.04;99600.81;1767661;80;20918;-67
2021/08/12 09:10:12;;;;;;;5.33;4.17;;;;;;;24.02;51.96;99599.67;1772741;80;21025;-67
2021/08/12 09:12:41;;;;;;;9.40;4.20;;;;;;;24.19;52.82;99608.23;1772878;80;21001;-65
2021/08/12 09:15:09;;;;;;;4.92;3.67;;;;;;;23.91;53.91;99609.48;1772894;81;20912;-64
2021/08/12 09:17:36;;;;;;;6.22;4.17;;;;;;;24.20;52.24;99608.45;1773321;81;21713;-66
2021/08/12 09:20:22;;;;;;;12.37;3.70;;;;;;;24.21;51.41;99612.02;1773222;80;20993;-61
2021/08/12 09:23:03;;;;;;;7.20;3.62;;;;;;;24.26;51.71;99607.67;1772901;80;20981;-64
2021/08/12 09:25:44;;;;;;;6.87;3.65;;;;;;;24.28;51.21;99612.24;1772391;80;20851;-65
2021/08/12 09:28:18;;;;;;;5.62;4.20;;;;;;;24.57;50.76;99612.00;1772519;80;20973;-67
2021/08/12 09:31:01;;;;;;;6.25;3.62;;;;;;;24.45;50.98;99601.56;1776568;79;21186;-68
2021/08/12 09:33:36;;;;;;;8.00;3.27;;;;;;;24.43;51.32;99616.23;1771427;80;20989;-66
2021/08/12 09:42:34;;;;;;;7.03;3.15;;;;;;;24.70;48.47;99607.86;1667999;83;21030;-68
2021/08/12 09:45:30;;;;;;;7.05;3.80;;;;;;;24.76;48.79;99616.06;1601152;86;21545;-68
2021/08/12 09:48:19;;;;;;;25.48;10.82;;;;;;;24.47;49.46;99622.63;1619850;86;20984;-69
2021/08/12 09:51:06;;;;;;;6.30;3.60;;;;;;;25.19;48.81;99617.32;1621269;86;21091;-69
2021/08/12 09:53:33;;;;;;;;;;;;;;;25.87;46.77;99614.43;1611733;89;21094;-69
2021/08/12 09:56:08;;;;;;;5.33;3.27;;;;;;;25.37;49.23;99627.41;1609313;89;20395;-69
2021/08/12 09:58:38;;;;;;;9.33;3.50;;;;;;;25.43;48.73;99626.81;1608882;87;21558;-69
2021/08/12 10:01:19;;;;;;;7.00;4.25;;;;;;;25.19;48.86;99619.48;1608895;89;21107;-70
2021/08/12 10:04:08;;;;;;;7.92;3.45;;;;;;;25.15;48.77;99622.67;1587279;87;21134;-71
2021/08/12 10:06:35;;;;;;;7.25;3.27;;;;;;;25.12;49.28;99614.34;1445903;97;21124;-69
2021/08/12 10:09:17;;;;;;;16.37;3.70;;;;;;;25.29;48.99;99617.39;1412536;99;21097;-69
2021/08/12 10:11:58;;;;;;;5.65;3.08;;;;;;;24.42;50.35;99620.09;1401922;101;21825;-70
2021/08/12 10:18:46;;;;;;;11.53;4.05;;;;;;;24.58;49.49;99603.19;1451474;95;21011;-70
2021/08/12 10:21:54;;;;;;;;;;;;;;;;;;;;;
2021/08/12 10:37:09;;;;;;;5.95;3.80;;;;;;;24.49;49.18;99610.75;1369019;104;21231;-70
2021/08/12 10:43:26;;;;;;;5.55;3.50;;;;;;;23.85;51.06;99606.75;1356259;101;21219;-70
2021/08/12 10:46:41;;;;;;;6.15;3.33;;;;;;;24.33;51.98;99624.35;1393844;101;21196;-69
2021/08/12 10:49:34;;;;;;;12.33;3.85;;;;;;;23.74;52.99;99610.52;1404591;98;21077;-68
2021/08/12 10:52:10;;;;;;;10.63;3.92;;;;;;;23.14;56.56;99620.13;1425546;98;21020;-67
2021/08/12 10:54:45;;;;;;;5.05;3.22;;;;;;;23.50;56.27;99613.39;1423123;98;21193;-69
2021/08/12 10:57:39;;;;;;;5.12;3.83;;;;;;;24.24;53.15;99616.23;1415659;99;21171;-68
2021/08/12 11:00:09;;;;;;;7.28;3.58;;;;;;;24.29;52.21;99624.22;1395303;102;21477;-67
2021/08/12 11:02:43;;;;;;;6.17;3.47;;;;;;;24.31;51.98;99619.78;1376481;101;21214;-69
2021/08/12 11:05:10;;;;;;;6.53;3.37;;;;;;;24.10;52.71;99623.42;1337699;105;21144;-69
2021/08/12 11:07:45;;;;;;;8.08;4.10;;;;;;;23.80;53.00;99631.06;1362513;103;21137;-69
2021/08/12 11:10:14;;;;;;;6.60;3.60;;;;;;;24.30;50.69;99628.58;1425589;98;21122;-70
2021/08/12 11:12:59;;;;;;;6.33;2.83;;;;;;;24.02;49.33;99625.72;1459457;95;21142;-69
2021/08/12 11:15:43;;;;;;;6.92;3.50;;;;;;;23.91;48.93;99618.52;1528999;93;21152;-70
2021/08/12 11:18:13;;;;;;;4.80;3.12;;;;;;;24.40;48.57;99620.46;1518323;93;20960;-71
2021/08/12 11:20:52;;;;;;;4.67;3.15;;;;;;;24.71;48.15;99628.66;1509468;94;21056;-70
2021/08/12 11:23:26;;;;;;;8.15;3.35;;;;;;;24.43;48.23;99628.57;1560389;85;20992;-69
2021/08/12 11:26:00;;;;;;;9.95;3.45;;;;;;;23.98;51.15;99630.84;1679749;85;21175;-69
2021/08/12 11:28:46;;;;;;;6.87;3.02;;;;;;;23.93;52.17;99640.09;1737957;82;20885;-70
2021/08/12 11:31:28;;;;;;;5.72;3.70;;;;;;;24.35;51.52;99633.83;1778807;80;20930;-69
2021/08/12 11:34:01;;;;;;;7.60;3.20;;;;;;;24.79;50.38;99630.45;1778739;80;20874;-71
2021/08/12 11:36:55;;;;;;;4.58;3.15;;;;;;;24.39;50.02;99627.07;1779257;80;21399;-71
2021/08/12 11:39:57;;;;;;;4.47;3.10;;;;;;;23.90;51.85;99633.93;1659664;83;21039;-70
2021/08/12 11:43:25;;;;;;;4.75;3.47;;;;;;;23.49;53.38;99636.46;1670822;84;20916;-71
2021/08/12 11:45:57;;;;;;;4.40;2.70;;;;;;;23.61;50.05;99620.59;1665944;84;20892;-71
2021/08/12 11:48:24;;;;;;;4.28;3.08;;;;;;;23.73;51.24;99606.95;1661704;86;20956;-70
2021/08/12 11:50:51;;;;;;;8.15;3.80;;;;;;;23.27;53.20;99634.91;1662165;86;20884;-70
2021/08/12 11:53:44;;;;;;;8.80;2.83;;;;;;;23.58;51.64;99625.97;1639796;86;21552;-70
2021/08/12 11:56:32;;;;;;;4.72;2.98;;;;;;;23.68;51.61;99626.90;1676089;85;20867;-70
2021/08/12 11:59:01;;;;;;;7.12;2.52;;;;;;;23.53;51.50;99635.20;1698300;84;20930;-70
2021/08/12 12:01:54;;;;;;;8.00;2.95;;;;;;;23.85;50.57;99628.67;1675790;84;20894;-70
2021/08/12 12:04:31;;;;;;;5.45;3.33;;;;;;;24.42;49.33;99632.44;1653484;86;21043;-70
2021/08/12 12:07:12;;;;;;;3.92;3.30;;;;;;;24.98;46.54;99625.72;1618120;87;21095;-73
2021/08/12 12:10:07;;;;;;;7.70;3.10;;;;;;;25.21;47.26;99632.30;1624953;87;20978;-71
2021/08/12 12:12:34;;;;;;;11.15;3.17;;;;;;;25.09;46.30;99630.16;1614841;87;21069;-71